• Join FlightAware (Why Join?)
  • Login
  • US Flag 
01:38AM EDT


 

Airport Tracker/Info


-or-


 

Live Flight TrackerFlight Track Log ✈ NDU99 ✈ 30-Apr-2013 ✈ KTVF - KTVF

Flight Track Log - Related Links

Times and Time Zones

All times are in EDT time to prevent confusion due to time zone crossing. See the NDU99 flight status page for this flight to view local times or setup timezone preferences in your user account.

Time Position Orientation Groundspeed Altitude Reporting Facility
EDT Latitude Longitude Course Direction KTS MPH feet Rate Location/Type
10:31AM 48.0842 -96.2150 261° West 79 91 2,200  Level Minneapolis Center
10:32AM 48.0786 -96.2447 254° West 76 87 3,200 960 Climbing Minneapolis Center
10:32AM 48.0747 -96.2736 259° West 93 107 3,800 720 Climbing Minneapolis Center
10:32AM 48.0756 -96.2831 278° West 98 113 3,900 120 Climbing Minneapolis Center
10:33AM 48.0182 -96.4698 261° West  Level FlightAware Approximate
10:33AM 48.0694 -96.3372 260° West 122 140 4,000  Level Minneapolis Center
10:34AM 48.0167 -96.5180 270° West  Level FlightAware Approximate
10:34AM 48.0633 -96.3914 260° West 124 143 4,000  Level Minneapolis Center
10:35AM 48.0134 -96.5660 261° West  Level FlightAware Approximate
10:36AM 48.0085 -96.6138 261° West  Level FlightAware Approximate
10:36AM 48.0486 -96.4425 247° West 122 140 3,900  Level Minneapolis Center
10:37AM 48.0347 -96.4808 242° Southwest 121 139 4,000 -240 Climbing Minneapolis Center
10:38AM 48.0219 -96.5300 249° West 127 146 3,500 -480 Descending Minneapolis Center
10:39AM 48.0103 -96.5925 254° West 130 150 3,000 -300 Descending Minneapolis Center
10:40AM 48.0011 -96.6397 254° West 135 155 2,900 -120 Descending Minneapolis Center
10:40AM 48.0014 -96.6469 273° West 134 154 2,900  Level Minneapolis Center
10:40AM 47.9922 -96.6883 252° West 128 147 2,900  Level Minneapolis Center
10:41AM 47.9889 -96.7072 255° West 131 151 2,900  Level Minneapolis Center
10:41AM 47.9833 -96.7367 254° West 128 147 2,900  Level Minneapolis Center
10:42AM 47.9794 -96.7578 255° West 129 148 2,900 60 Level Minneapolis Center
10:42AM 47.9728 -96.7914 254° West 128 147 3,000  Climbing Minneapolis Center
10:43AM 47.9700 -96.8083 256° West 128 147 2,900 -120 Descending Minneapolis Center
10:43AM 47.9639 -96.8397 254° West 126 145 2,900  Level Minneapolis Center
10:44AM 47.9597 -96.8581 251° West 127 146 2,900 -120 Level Minneapolis Center
10:44AM 47.9528 -96.8883 251° West 124 143 2,800 -240 Descending Minneapolis Center
10:45AM 47.9500 -96.9072 258° West 125 144 2,700 -420 Descending Minneapolis Center
10:45AM 47.9506 -96.9417 271° West 134 154 2,400 -300 Descending Minneapolis Center
10:46AM 47.9494 -96.9611 265° West 127 146 2,400  Level Minneapolis Center
10:47AM 47.9522 -96.9914 278° West 104 120 2,400 -120 Level Minneapolis Center
10:47AM 47.9522 -97.0047 270° West 118 136 2,300  Descending Minneapolis Center
10:48AM 47.9514 -97.0350 268° West 92 106 2,400  Climbing Minneapolis Center
10:48AM 47.9522 -97.0406 283° West 103 119 2,300 -420 Descending Minneapolis Center
10:49AM 47.9514 -97.0664 267° West 78 90 2,000 -300 Descending Minneapolis Center
10:49AM 47.9531 -97.0778 282° West 88 101 2,000 -240 Level Minneapolis Center
10:50AM 47.9514 -97.0944 262° West 71 82 1,800 -300 Descending Minneapolis Center
10:50AM 47.9525 -97.1050 279° West 77 89 1,700 -540 Descending Minneapolis Center
10:51AM 47.9519 -97.1286 268° West 78 90 1,300 -540 Descending Minneapolis Center
10:51AM 47.9525 -97.1369 276° West 75 86 1,200 -300 Descending Minneapolis Center
10:52AM 47.9519 -97.1597 268° West 75 86 1,000  Descending Minneapolis Center
10:52AM 47.9519 -97.1617 270° West 75 86 1,200 660 Climbing Minneapolis Center